Time;durP1;ratioP1;P1;durP2;ratioP2;P2;SDS_P1;SDS_P2;PMS_P1;PMS_P2;Temp;Humidity;BMP_temperature;BMP_pressure;BME280_temperature;BME280_humidity;BME280_pressure;Samples;Min_cycle;Max_cycle;Signal;HPM_P1;HPM_P2
2022/11/08 00:01:30;;;;;;;;;;;;;;;11.61;77.47;95679.84;5055010;28;1066;-59
2022/11/08 00:03:05;;;;;;;;;;;;;;;11.61;77.13;95668.28;5054457;28;1074;-59
2022/11/08 00:13:58;;;;;;;;;;;;;;;11.44;77.14;95686.91;5054895;28;998;-59
2022/11/08 00:16:25;;;;;;;;;;;;;;;11.33;77.15;95685.28;5054733;28;1038;-59
2022/11/08 00:18:51;;;;;;;;;;;;;;;11.36;76.95;95685.97;5054961;28;982;-59
2022/11/08 00:21:17;;;;;;;;;;;;;;;11.35;76.75;95674.44;5054616;28;1121;-59
2022/11/08 00:23:43;;;;;;;;;;;;;;;11.30;77.02;95682.06;5037025;28;1899;-59
2022/11/08 00:26:09;;;;;;;;;;;;;;;11.26;77.25;95686.06;5054568;28;1176;-59
2022/11/08 00:28:35;;;;;;;;;;;;;;;11.43;76.54;95685.22;5054408;28;1058;-59
2022/11/08 00:31:05;;;;;;;;;;;;;;;11.41;76.66;95687.19;5054613;28;969;-59
2022/11/08 00:33:31;;;;;;;;;;;;;;;11.31;77.00;95683.78;5054379;28;1054;-59
2022/11/08 00:35:57;;;;;;;;;;;;;;;11.26;77.25;95686.06;5054400;28;1085;-59
2022/11/08 00:38:24;;;;;;;;;;;;;;;11.23;77.41;95683.66;5054343;28;1206;-59
2022/11/08 00:40:50;;;;;;;;;;;;;;;11.29;77.53;95680.41;5054369;28;958;-59
2022/11/08 00:43:16;;;;;;;;;;;;;;;11.46;76.61;95681.41;5054076;28;1907;-59
2022/11/08 00:45:42;;;;;;;;;;;;;;;11.42;76.22;95686.22;5054460;28;1025;-58
2022/11/08 00:48:08;;;;;;;;;;;;;;;11.31;76.85;95686.44;5036182;28;1014;-59
2022/11/08 00:50:37;;;;;;;;;;;;;;;11.34;76.77;95683.44;5036547;28;1009;-59
2022/11/08 00:53:03;;;;;;;;;;;;;;;11.36;76.72;95684.13;5054188;28;1029;-59
2022/11/08 00:55:29;;;;;;;;;;;;;;;11.20;77.50;95676.78;5053976;28;1717;-59
2022/11/08 00:57:55;;;;;;;;;;;;;;;11.17;77.60;95671.72;5053956;28;1032;-59
2022/11/08 01:00:21;;;;;;;;;;;;;;;11.21;77.81;95682.97;5054097;28;991;-59
2022/11/08 01:02:47;;;;;;;;;;;;;;;11.30;77.65;95677.56;5054159;28;1002;-59
2022/11/08 01:05:13;;;;;;;;;;;;;;;11.46;77.25;95682.22;5036215;28;1914;-59
2022/11/08 01:07:39;;;;;;;;;;;;;;;11.45;77.25;95675.19;5053965;28;1045;-59
2022/11/08 01:10:06;;;;;;;;;;;;;;;11.49;77.40;95673.88;5036261;28;982;-59
2022/11/08 01:12:32;;;;;;;;;;;;;;;11.52;77.62;95676.25;5053609;28;1053;-59
2022/11/08 01:14:59;;;;;;;;;;;;;;;11.68;76.64;95669.34;5053114;28;985;-59
2022/11/08 01:17:25;;;;;;;;;;;;;;;11.65;76.54;95662.47;5035981;28;1038;-59
2022/11/08 01:19:51;;;;;;;;;;;;;;;11.62;77.18;95661.94;5053771;28;974;-59
2022/11/08 01:22:17;;;;;;;;;;;;;;;11.59;77.40;95663.09;5053520;28;1109;-59
2022/11/08 01:24:43;;;;;;;;;;;;;;;11.64;77.44;95658.09;5035782;28;1985;-59
2022/11/08 01:27:09;;;;;;;;;;;;;;;11.72;77.38;95654.66;5053473;28;1049;-59
2022/11/08 01:29:35;;;;;;;;;;;;;;;11.71;77.37;95658.34;5053352;28;1016;-59
2022/11/08 01:32:01;;;;;;;;;;;;;;;11.59;78.26;95657.75;5053661;28;1050;-59
2022/11/08 01:34:27;;;;;;;;;;;;;;;11.50;78.89;95659.50;5053320;28;1177;-59
2022/11/08 01:36:53;;;;;;;;;;;;;;;11.46;78.82;95662.66;5053202;28;1077;-59
2022/11/08 01:39:19;;;;;;;;;;;;;;;11.59;78.25;95662.25;5053228;28;1132;-59
2022/11/08 01:41:45;;;;;;;;;;;;;;;11.63;77.91;95655.56;5053340;28;812;-59
2022/11/08 01:44:16;;;;;;;;;;;;;;;11.52;78.67;95660.19;5035584;28;1918;-59
2022/11/08 01:46:43;;;;;;;;;;;;;;;11.55;78.56;95659.03;5053252;28;1069;-59
2022/11/08 01:49:22;;;;;;;;;;;;;;;11.67;77.95;95660.47;5053382;28;1048;-59
2022/11/08 01:51:51;;;;;;;;;;;;;;;11.78;77.47;95664.75;5053301;28;1041;-59
2022/11/08 01:54:22;;;;;;;;;;;;;;;11.72;77.43;95666.22;5053063;28;1756;-59
2022/11/08 01:56:48;;;;;;;;;;;;;;;11.62;78.35;95669.97;5053397;28;1042;-59
2022/11/08 01:59:15;;;;;;;;;;;;;;;11.59;78.34;95673.81;5053555;28;990;-59
2022/11/08 02:01:42;;;;;;;;;;;;;;;11.63;78.26;95668.97;5053239;28;1017;-59
2022/11/08 02:04:09;;;;;;;;;;;;;;;11.63;78.29;95666.28;5052963;28;1906;-59
2022/11/08 02:06:37;;;;;;;;;;;;;;;11.63;78.54;95666.28;5052946;28;1070;-59
2022/11/08 02:09:06;;;;;;;;;;;;;;;11.55;78.82;95674.25;5053085;28;1133;-59
2022/11/08 02:11:33;;;;;;;;;;;;;;;11.46;78.92;95678.72;5053027;28;1041;-59
2022/11/08 02:14:00;;;;;;;;;;;;;;;11.44;78.80;95673.53;5052929;28;1061;-59
2022/11/08 02:16:25;;;;;;;;;;;;;;;11.44;79.21;95672.66;5053035;28;1038;-59
2022/11/08 02:18:52;;;;;;;;;;;;;;;11.46;79.00;95666.16;5053049;28;1053;-59
2022/11/08 02:21:21;;;;;;;;;;;;;;;11.55;78.81;95664.38;5052857;28;1125;-59
2022/11/08 02:23:51;;;;;;;;;;;;;;;11.58;78.46;95668.63;5052721;28;1902;-59
2022/11/08 02:26:18;;;;;;;;;;;;;;;11.43;78.89;95677.19;5056076;28;951;-59
2022/11/08 02:28:45;;;;;;;;;;;;;;;11.38;79.13;95679.47;5056960;28;1049;-59
2022/11/08 02:31:12;;;;;;;;;;;;;;;11.36;79.12;95681.44;5056798;28;1058;-59
2022/11/08 02:33:39;;;;;;;;;;;;;;;11.36;79.17;95683.28;5056642;28;1058;-59
2022/11/08 02:36:06;;;;;;;;;;;;;;;11.51;78.70;95679.09;5056540;28;1159;-59
2022/11/08 02:38:35;;;;;;;;;;;;;;;11.66;78.07;95674.03;5056436;28;1173;-59
2022/11/08 02:41:01;;;;;;;;;;;;;;;11.62;78.04;95676.16;5056840;28;1013;-59
2022/11/08 02:43:27;;;;;;;;;;;;;;;11.62;78.16;95669.97;5056613;28;1985;-59
2022/11/08 02:45:53;;;;;;;;;;;;;;;11.66;78.08;95672.19;5056491;28;1124;-59
2022/11/08 02:48:19;;;;;;;;;;;;;;;11.62;77.82;95676.16;5056471;28;1110;-59
2022/11/08 02:50:46;;;;;;;;;;;;;;;11.58;78.18;95674.81;5038684;28;1192;-59
2022/11/08 02:53:12;;;;;;;;;;;;;;;11.41;78.74;95679.16;5056631;28;985;-59
2022/11/08 02:55:38;;;;;;;;;;;;;;;11.36;79.24;95678.78;5056169;28;1725;-59
2022/11/08 02:58:04;;;;;;;;;;;;;;;11.26;79.48;95675.34;5056471;28;1032;-59
2022/11/08 03:00:31;;;;;;;;;;;;;;;11.37;79.13;95680.47;5056613;28;1049;-60
2022/11/08 03:02:57;;;;;;;;;;;;;;;11.45;78.23;95687.75;5056169;28;1133;-59
2022/11/08 03:05:24;;;;;;;;;;;;;;;11.41;78.60;95691.72;5056011;28;1910;-59
2022/11/08 03:07:51;;;;;;;;;;;;;;;11.28;79.02;95687.56;5056107;28;1029;-59
2022/11/08 03:10:17;;;;;;;;;;;;;;;11.29;78.88;95688.44;5056226;28;1064;-59
2022/11/08 03:12:44;;;;;;;;;;;;;;;11.25;78.90;95690.56;5056043;28;1065;-59
2022/11/08 03:15:11;;;;;;;;;;;;;;;11.31;78.58;95692.63;5055898;28;1050;-59
2022/11/08 03:17:37;;;;;;;;;;;;;;;11.36;77.97;95694.84;5055826;28;1058;-59
2022/11/08 03:20:03;;;;;;;;;;;;;;;11.39;77.65;95689.19;5055848;28;1059;-59
2022/11/08 03:22:30;;;;;;;;;;;;;;;11.41;77.39;95684.53;5038056;28;970;-59
2022/11/08 03:24:56;;;;;;;;;;;;;;;11.33;77.30;95687.97;5038249;28;1995;-59
2022/11/08 03:27:22;;;;;;;;;;;;;;;11.28;77.14;95692.09;5055647;28;1065;-59
2022/11/08 03:29:48;;;;;;;;;;;;;;;11.08;78.17;95694.06;5055691;28;1097;-59
2022/11/08 03:32:14;;;;;;;;;;;;;;;11.05;78.20;95687.16;5055583;28;1117;-59
2022/11/08 03:34:41;;;;;;;;;;;;;;;11.02;77.81;95690.16;5038137;28;1690;-59
2022/11/08 03:37:08;;;;;;;;;;;;;;;11.11;77.68;95691.06;5054141;28;1225;-59
2022/11/08 03:39:34;;;;;;;;;;;;;;;11.21;76.99;95693.69;5055420;28;1076;-59
2022/11/08 03:42:03;;;;;;;;;;;;;;;11.26;76.78;95696.75;5055649;28;958;-59
2022/11/08 03:44:30;;;;;;;;;;;;;;;11.07;77.46;95692.38;5055260;28;1914;-59
2022/11/08 03:46:56;;;;;;;;;;;;;;;11.06;77.85;95693.34;5055500;28;1074;-59
2022/11/08 03:49:22;;;;;;;;;;;;;;;11.02;78.00;95690.16;5055199;28;1025;-59
2022/11/08 03:51:48;;;;;;;;;;;;;;;11.01;77.95;95693.81;5055276;28;1109;-61
2022/11/08 03:54:14;;;;;;;;;;;;;;;11.02;77.85;95690.16;5037520;28;1701;-60
2022/11/08 03:56:40;;;;;;;;;;;;;;;10.95;77.75;95683.72;5055197;28;931;-61
2022/11/08 03:59:06;;;;;;;;;;;;;;;10.92;77.07;95694.72;5055083;28;1061;-61
2022/11/08 04:01:32;;;;;;;;;;;;;;;10.69;77.74;95697.78;5055125;28;998;-61
2022/11/08 04:03:59;;;;;;;;;;;;;;;10.71;77.12;95695.81;5037282;28;1918;-61
2022/11/08 04:06:25;;;;;;;;;;;;;;;10.64;77.56;95697.41;5037287;28;1057;-60
2022/11/08 04:08:52;;;;;;;;;;;;;;;10.64;76.94;95701.91;5037662;28;1061;-70
2022/11/08 04:16:48;;;;;;;;;;;;;;;10.46;77.32;95709.88;5054868;28;1140;-61
2022/11/08 04:22:02;;;;;;;;;;;;;;;10.48;77.67;95694.53;5054548;28;1042;-61
2022/11/08 04:24:30;;;;;;;;;;;;;;;10.58;76.99;95699.81;5036967;28;1993;-61
2022/11/08 04:26:57;;;;;;;;;;;;;;;10.72;76.37;95704.69;5036783;28;1074;-61
2022/11/08 04:29:26;;;;;;;;;;;;;;;10.73;76.10;95712.56;5037161;28;1572;-61
2022/11/08 04:31:54;;;;;;;;;;;;;;;10.76;75.93;95706.09;5054420;28;1560;-59
2022/11/08 04:34:20;;;;;;;;;;;;;;;10.77;75.47;95697.06;5036941;28;1002;-59
2022/11/08 04:36:48;;;;;;;;;;;;;;;10.70;75.96;95693.31;5054274;28;1246;-59
2022/11/08 04:39:15;;;;;;;;;;;;;;;10.59;76.19;95697.00;5036526;28;1162;-58
2022/11/08 04:41:41;;;;;;;;;;;;;;;10.58;76.83;95698.00;5054324;28;1049;-58
2022/11/08 04:44:07;;;;;;;;;;;;;;;10.64;76.45;95691.22;5036791;28;1914;-58
2022/11/08 04:46:33;;;;;;;;;;;;;;;10.53;76.08;95694.94;5054399;28;1021;-58
2022/11/08 04:48:59;;;;;;;;;;;;;;;10.55;75.72;95695.63;5054035;28;1116;-58
2022/11/08 04:51:27;;;;;;;;;;;;;;;10.61;75.51;95689.69;5054203;28;1008;-59
2022/11/08 04:53:54;;;;;;;;;;;;;;;10.51;76.09;95691.56;5054041;28;1732;-58
2022/11/08 04:56:20;;;;;;;;;;;;;;;10.50;76.27;95696.06;5053978;28;1045;-58
2022/11/08 04:58:50;;;;;;;;;;;;;;;10.39;76.75;95687.38;5054005;28;1121;-59
2022/11/08 05:01:18;;;;;;;;;;;;;;;10.45;76.66;95695.69;5054045;28;1040;-59
2022/11/08 05:03:45;;;;;;;;;;;;;;;10.51;75.38;95699.59;5036136;28;1914;-59
2022/11/08 05:06:12;;;;;;;;;;;;;;;10.44;75.21;95695.81;5053995;28;1007;-59
2022/11/08 05:08:38;;;;;;;;;;;;;;;10.35;76.05;95693.00;5053719;28;938;-59
2022/11/08 05:11:06;;;;;;;;;;;;;;;10.39;76.38;95690.91;5053735;28;942;-59
2022/11/08 05:13:32;;;;;;;;;;;;;;;10.38;76.67;95697.25;5053738;28;1057;-59
2022/11/08 05:16:12;;;;;;;;;;;;;;;10.29;76.25;95698.91;5036078;28;1042;-59
2022/11/08 05:18:39;;;;;;;;;;;;;;;10.21;76.35;95695.31;5053576;28;1066;-59
2022/11/08 05:23:50;;;;;;;;;;;;;;;10.22;76.21;95713.00;5053516;28;1906;-60
2022/11/08 05:26:18;;;;;;;;;;;;;;;10.17;76.98;95718.81;5053415;28;1061;-59
2022/11/08 05:28:44;;;;;;;;;;;;;;;10.18;75.62;95720.47;5053497;28;1069;-59
2022/11/08 05:31:10;;;;;;;;;;;;;;;10.24;75.01;95729.75;5035838;28;1050;-59
2022/11/08 05:33:37;;;;;;;;;;;;;;;10.14;76.29;95732.44;5053352;28;1046;-59
2022/11/08 05:36:04;;;;;;;;;;;;;;;10.21;77.31;95728.22;5053099;28;1234;-59
2022/11/08 05:38:31;;;;;;;;;;;;;;;10.21;77.84;95736.22;5035440;28;1198;-59
2022/11/08 05:41:04;;;;;;;;;;;;;;;10.30;77.47;95735.41;5053488;28;1090;-59
2022/11/08 05:43:30;;;;;;;;;;;;;;;10.43;77.12;95739.56;5053295;28;1996;-59
2022/11/08 05:45:57;;;;;;;;;;;;;;;10.45;77.54;95737.59;5053247;28;1118;-58
2022/11/08 05:48:23;;;;;;;;;;;;;;;10.63;77.00;95733.16;5050274;28;1429;-59
2022/11/08 05:50:49;;;;;;;;;;;;;;;10.64;77.24;95737.53;5035101;28;1151;-59
2022/11/08 05:53:15;;;;;;;;;;;;;;;10.83;76.68;95741.94;5053155;28;1054;-59
2022/11/08 05:55:41;;;;;;;;;;;;;;;11.01;76.50;95730.44;5035337;28;1732;-59
2022/11/08 05:58:08;;;;;;;;;;;;;;;11.21;76.16;95737.38;5035655;28;971;-59
2022/11/08 06:00:34;;;;;;;;;;;;;;;11.48;75.63;95739.16;5052120;28;1106;-59
2022/11/08 06:03:01;;;;;;;;;;;;;;;11.74;75.07;95743.72;5053149;28;1042;-59
2022/11/08 06:05:27;;;;;;;;;;;;;;;11.81;75.23;95744.81;5035021;28;1898;-59
2022/11/08 06:07:54;;;;;;;;;;;;;;;12.47;72.97;95746.16;5053079;28;1041;-59
2022/11/08 06:10:20;;;;;;;;;;;;;;;12.93;71.53;95743.22;5052854;28;1017;-59
2022/11/08 06:12:46;;;;;;;;;;;;;;;13.14;71.19;95750.00;5052983;28;1078;-59
2022/11/08 06:15:12;;;;;;;;;;;;;;;13.35;70.99;95754.97;5052889;28;1094;-59
2022/11/08 06:17:38;;;;;;;;;;;;;;;13.65;70.41;95751.69;5052924;28;1057;-59
2022/11/08 06:20:06;;;;;;;;;;;;;;;13.96;69.25;95752.88;5052610;28;1205;-59
2022/11/08 06:22:33;;;;;;;;;;;;;;;14.89;66.37;95752.50;5053049;28;1053;-59
2022/11/08 06:24:59;;;;;;;;;;;;;;;16.26;61.88;95757.44;5052865;28;1961;-59
2022/11/08 06:27:25;;;;;;;;;;;;;;;17.36;57.62;95754.13;5052948;28;982;-60
2022/11/08 06:29:52;;;;;;;;;;;;;;;16.13;60.57;95760.75;5052578;28;1167;-60
2022/11/08 06:32:18;;;;;;;;;;;;;;;17.18;59.15;95768.84;5052752;28;914;-60
2022/11/08 06:34:47;;;;;;;;;;;;;;;18.09;56.30;95765.78;5052697;28;1290;-60
2022/11/08 06:37:14;;;;;;;;;;;;;;;17.22;58.45;95765.78;5051259;28;1119;-60
2022/11/08 06:39:41;;;;;;;;;;;;;;;16.45;61.99;95762.34;5039555;28;1181;-60
2022/11/08 06:42:08;;;;;;;;;;;;;;;16.75;61.14;95770.47;5052722;28;1058;-60
2022/11/08 06:44:34;;;;;;;;;;;;;;;15.55;64.68;95769.19;5052632;28;1981;-60
2022/11/08 06:47:00;;;;;;;;;;;;;;;14.95;66.44;95767.94;5052688;28;1121;-60
2022/11/08 06:49:27;;;;;;;;;;;;;;;14.57;67.74;95767.69;5052251;28;1046;-60
2022/11/08 06:51:53;;;;;;;;;;;;;;;14.31;69.13;95767.03;5052873;28;1048;-60
2022/11/08 06:54:19;;;;;;;;;;;;;;;14.20;69.93;95762.81;5052458;28;1721;-60
2022/11/08 06:56:46;;;;;;;;;;;;;;;14.39;69.16;95758.94;5052611;28;1042;-60
2022/11/08 06:59:12;;;;;;;;;;;;;;;14.60;68.96;95775.41;5052348;28;1185;-60
2022/11/08 07:01:38;;;;;;;;;;;;;;;15.13;67.05;95767.69;5052456;28;1034;-59
2022/11/08 07:04:04;;;;;;;;;;;;;;;15.79;64.96;95770.94;5052408;28;1906;-60
2022/11/08 07:06:30;;;;;;;;;;;;;;;15.59;64.95;95775.91;5034729;28;1188;-60
2022/11/08 07:08:57;;;;;;;;;;;;;;;15.13;66.83;95773.09;5052382;28;1169;-60
2022/11/08 07:11:23;;;;;;;;;;;;;;;14.83;68.27;95774.69;5032574;28;1041;-63
2022/11/08 07:13:49;;;;;;;;;;;;;;;14.75;69.16;95769.34;5036148;28;1058;-60
2022/11/08 07:16:15;;;;;;;;;;;;;;;14.76;69.09;95771.00;5035849;28;1058;-60
2022/11/08 07:18:41;;;;;;;;;;;;;;;14.49;69.63;95770.34;5035994;28;970;-60
2022/11/08 07:21:07;;;;;;;;;;;;;;;14.32;70.30;95771.38;5053450;28;1064;-64
2022/11/08 07:23:33;;;;;;;;;;;;;;;14.21;70.77;95773.41;5055931;28;1910;-64
2022/11/08 07:26:01;;;;;;;;;;;;;;;14.16;71.00;95770.38;5055835;28;1066;-64
2022/11/08 07:28:27;;;;;;;;;;;;;;;14.06;71.43;95775.09;5055771;28;1005;-64
2022/11/08 07:30:56;;;;;;;;;;;;;;;14.03;71.29;95776.25;5055442;28;1237;-64
2022/11/08 07:33:23;;;;;;;;;;;;;;;14.16;71.16;95780.31;5037969;28;1077;-64
2022/11/08 07:35:50;;;;;;;;;;;;;;;14.30;70.57;95776.09;5055413;28;1283;-64
2022/11/08 07:38:17;;;;;;;;;;;;;;;15.11;67.87;95779.66;5055356;28;1183;-64
2022/11/08 07:40:43;;;;;;;;;;;;;;;15.54;66.06;95785.56;5055189;28;1109;-64
2022/11/08 07:43:09;;;;;;;;;;;;;;;18.70;56.63;95781.56;5055616;28;971;-63
2022/11/08 07:45:36;;;;;;;;;;;;;;;21.33;47.93;95785.69;5055312;28;1910;-64
2022/11/08 07:48:03;;;;;;;;;;;;;;;19.63;51.90;95783.97;5055447;28;1057;-63
2022/11/08 07:50:30;;;;;;;;;;;;;;;22.31;46.21;95790.97;5054964;28;1235;-64
2022/11/08 07:52:57;;;;;;;;;;;;;;;23.06;44.17;95790.19;5055464;28;1010;-64
2022/11/08 07:55:24;;;;;;;;;;;;;;;23.51;42.90;95798.16;5037379;28;1740;-64
2022/11/08 07:57:50;;;;;;;;;;;;;;;22.78;43.98;95786.03;5055190;28;1141;-64
2022/11/08 08:00:16;;;;;;;;;;;;;;;22.65;44.21;95782.56;5054752;28;1276;-64
2022/11/08 08:02:43;;;;;;;;;;;;;;;20.84;47.85;95775.06;5037319;28;1028;-63
2022/11/08 08:05:09;;;;;;;;;;;;;;;20.14;50.18;95765.59;5055344;28;1915;-63
2022/11/08 08:07:36;;;;;;;;;;;;;;;20.36;49.83;95779.84;5055034;28;951;-64
2022/11/08 08:10:02;;;;;;;;;;;;;;;21.59;46.92;95782.09;5054796;28;1071;-64
2022/11/08 08:12:28;;;;;;;;;;;;;;;24.97;39.23;95800.00;5054896;28;1010;-64
2022/11/08 08:14:54;;;;;;;;;;;;;;;29.06;32.69;95812.69;5054740;28;1054;-64
2022/11/08 08:17:20;;;;;;;;;;;;;;;31.87;28.64;95825.84;5054738;28;1086;-64
2022/11/08 08:19:46;;;;;;;;;;;;;;;32.78;27.47;95841.56;5054715;28;1049;-64
2022/11/08 08:22:12;;;;;;;;;;;;;;;32.54;27.85;95836.69;5054713;28;962;-64
2022/11/08 08:24:39;;;;;;;;;;;;;;;32.87;26.79;95843.44;5054253;28;1909;-64
2022/11/08 08:27:05;;;;;;;;;;;;;;;33.25;26.37;95840.16;5054711;28;994;-65
2022/11/08 08:29:31;;;;;;;;;;;;;;;32.10;27.48;95823.59;5054177;28;990;-64
2022/11/08 08:31:57;;;;;;;;;;;;;;;28.87;32.46;95809.47;5054669;28;1057;-64
2022/11/08 08:34:23;;;;;;;;;;;;;;;27.37;35.15;95792.22;5054506;28;1116;-64
2022/11/08 08:36:50;;;;;;;;;;;;;;;26.76;35.72;95786.56;5054316;28;1133;-64
2022/11/08 08:39:16;;;;;;;;;;;;;;;26.61;36.63;95781.63;5053277;28;1714;-64
2022/11/08 08:41:43;;;;;;;;;;;;;;;27.40;34.58;95786.25;5054201;28;1288;-64
2022/11/08 08:44:09;;;;;;;;;;;;;;;27.76;34.25;95788.66;5036543;28;1914;-63
2022/11/08 08:46:35;;;;;;;;;;;;;;;29.14;32.36;95803.13;5036368;28;959;-63
2022/11/08 08:49:02;;;;;;;;;;;;;;;30.13;30.81;95803.53;5053228;28;993;-64
2022/11/08 08:51:28;;;;;;;;;;;;;;;29.34;31.30;95810.75;5054106;28;1134;-64
2022/11/08 08:53:54;;;;;;;;;;;;;;;27.02;35.47;95787.81;5051997;28;1775;-64
2022/11/08 08:56:20;;;;;;;;;;;;;;;25.30;37.91;95773.97;5016702;28;1003;-63
2022/11/08 08:58:48;;;;;;;;;;;;;;;25.96;37.31;95771.88;5016629;28;974;-64
2022/11/08 09:01:15;;;;;;;;;;;;;;;26.87;35.86;95782.91;5034391;28;1034;-64
2022/11/08 09:03:41;;;;;;;;;;;;;;;25.83;37.34;95775.69;5033937;28;1910;-63
2022/11/08 09:06:07;;;;;;;;;;;;;;;24.57;39.30;95769.72;5034134;28;1030;-63
2022/11/08 09:08:34;;;;;;;;;;;;;;;24.34;40.04;95757.66;5034007;28;1045;-63
2022/11/08 09:11:00;;;;;;;;;;;;;;;23.99;41.33;95763.78;5033984;28;1035;-64
2022/11/08 09:13:29;;;;;;;;;;;;;;;24.29;40.95;95754.78;5033774;28;1031;-63
2022/11/08 09:15:55;;;;;;;;;;;;;;;25.10;40.05;95760.66;5033806;28;1061;-64
2022/11/08 09:18:22;;;;;;;;;;;;;;;25.57;38.71;95762.53;5033683;28;987;-64
2022/11/08 09:20:48;;;;;;;;;;;;;;;24.79;40.35;95754.44;5033740;28;1082;-64
2022/11/08 09:23:17;;;;;;;;;;;;;;;23.51;42.25;95754.47;5033846;28;964;-63
2022/11/08 09:25:44;;;;;;;;;;;;;;;23.07;43.72;95750.13;5033629;28;1979;-63
2022/11/08 09:28:10;;;;;;;;;;;;;;;22.92;44.43;95736.84;5016058;28;1138;-64
2022/11/08 09:30:36;;;;;;;;;;;;;;;22.34;45.66;95741.47;5033504;28;1077;-64
2022/11/08 09:33:03;;;;;;;;;;;;;;;22.41;45.56;95739.56;5033754;28;976;-64
2022/11/08 09:35:30;;;;;;;;;;;;;;;22.78;45.31;95736.97;5032692;28;1121;-64
2022/11/08 09:37:56;;;;;;;;;;;;;;;23.07;44.47;95740.06;5033285;28;1124;-64
2022/11/08 09:40:26;;;;;;;;;;;;;;;22.92;43.50;95740.38;5015933;28;962;-63
2022/11/08 09:43:19;;;;;;;;;;;;;;;23.05;44.46;95738.59;5033416;28;1062;-60
2022/11/08 09:45:45;;;;;;;;;;;;;;;23.38;42.92;95741.00;5010263;28;1909;-61
2022/11/08 09:48:24;;;;;;;;;;;;;;;23.60;43.32;95749.56;5033334;28;1066;-61
2022/11/08 09:50:51;;;;;;;;;;;;;;;24.04;41.56;95738.53;5033786;28;998;-61
2022/11/08 09:53:21;;;;;;;;;;;;;;;24.58;41.01;95730.38;5033361;28;1542;-65
2022/11/08 09:55:58;;;;;;;;;;;;;;;25.35;39.64;95740.44;5050995;28;1813;-61
2022/11/08 09:58:36;;;;;;;;;;;;;;;25.89;39.35;95736.34;5053132;28;1102;-60
2022/11/08 10:01:03;;;;;;;;;;;;;;;26.31;38.02;95740.75;5053531;28;963;-60
2022/11/08 10:03:29;;;;;;;;;;;;;;;26.75;37.63;95740.16;5052987;28;1116;-61
2022/11/08 10:06:04;;;;;;;;;;;;;;;26.79;36.91;95731.22;5052985;28;1977;-62
2022/11/08 10:08:33;;;;;;;;;;;;;;;26.96;36.48;95733.94;5035429;28;1093;-61
2022/11/08 10:11:09;;;;;;;;;;;;;;;26.91;36.47;95728.38;5053207;28;970;-61
2022/11/08 10:13:48;;;;;;;;;;;;;;;26.70;36.54;95726.38;5053004;28;1113;-62
2022/11/08 10:16:29;;;;;;;;;;;;;;;26.32;38.52;95714.19;5052935;28;977;-61
2022/11/08 10:19:14;;;;;;;;;;;;;;;25.78;37.83;95715.34;5053184;28;1140;-61
2022/11/08 10:21:46;;;;;;;;;;;;;;;25.31;38.89;95701.78;5053105;28;1018;-60
2022/11/08 10:24:35;;;;;;;;;;;;;;;24.47;40.94;95693.72;5052964;28;1914;-61
2022/11/08 10:27:02;;;;;;;;;;;;;;;23.39;43.23;95691.66;5053139;28;966;-60
2022/11/08 10:29:37;;;;;;;;;;;;;;;22.67;44.39;95685.91;5053030;28;1046;-60
2022/11/08 10:32:11;;;;;;;;;;;;;;;22.25;44.84;95684.75;5052916;28;1125;-58
2022/11/08 10:34:45;;;;;;;;;;;;;;;22.05;45.86;95679.47;5052874;28;974;-60
2022/11/08 10:37:13;;;;;;;;;;;;;;;22.09;46.17;95670.63;5052503;28;1206;-59
2022/11/08 10:39:50;;;;;;;;;;;;;;;21.90;45.59;95675.16;5052972;28;1005;-59
2022/11/08 10:42:36;;;;;;;;;;;;;;;21.31;46.46;95671.66;5052861;28;1048;-59
2022/11/08 10:45:02;;;;;;;;;;;;;;;20.98;48.83;95667.19;5052821;28;1910;-59
2022/11/08 10:47:30;;;;;;;;;;;;;;;20.72;48.41;95664.53;5055832;28;1109;-59
2022/11/08 10:49:56;;;;;;;;;;;;;;;20.56;49.41;95654.91;5056728;28;1006;-58
2022/11/08 10:52:41;;;;;;;;;;;;;;;20.44;48.63;95658.25;5056343;28;1062;-59
2022/11/08 10:55:08;;;;;;;;;;;;;;;20.34;49.62;95659.75;5056276;28;1733;-59
2022/11/08 10:57:36;;;;;;;;;;;;;;;20.25;49.24;95651.78;5056337;28;1058;-59
2022/11/08 11:00:14;;;;;;;;;;;;;;;20.08;49.25;95655.97;5056332;28;962;-59
2022/11/08 11:02:42;;;;;;;;;;;;;;;19.95;49.48;95645.09;5056516;28;1005;-59
2022/11/08 11:05:17;;;;;;;;;;;;;;;19.90;50.04;95643.03;5056299;28;1910;-59
2022/11/08 11:07:44;;;;;;;;;;;;;;;19.94;49.98;95640.72;5056304;28;1058;-59
2022/11/08 11:10:22;;;;;;;;;;;;;;;19.92;49.68;95640.09;5056071;28;1071;-59
2022/11/08 11:12:50;;;;;;;;;;;;;;;19.86;50.72;95637.19;5056046;28;978;-58
2022/11/08 11:15:16;;;;;;;;;;;;;;;19.85;49.33;95630.06;5056163;28;1005;-59
2022/11/08 11:17:45;;;;;;;;;;;;;;;19.87;50.78;95635.28;5056048;28;1050;-59
2022/11/08 11:20:21;;;;;;;;;;;;;;;19.93;51.56;95630.91;5056018;28;979;-59
2022/11/08 11:22:47;;;;;;;;;;;;;;;19.93;51.91;95614.63;5055983;28;1022;-58
2022/11/08 11:25:18;;;;;;;;;;;;;;;19.86;51.29;95620.03;5055775;28;1902;-59
2022/11/08 11:27:48;;;;;;;;;;;;;;;19.79;50.84;95617.34;5056119;28;1052;-59
2022/11/08 11:30:26;;;;;;;;;;;;;;;19.82;51.94;95624.22;5055959;28;1049;-57
2022/11/08 11:32:55;;;;;;;;;;;;;;;19.78;51.92;95625.69;5055787;28;1017;-58
2022/11/08 11:35:23;;;;;;;;;;;;;;;19.65;50.87;95619.19;5055661;28;1061;-58
2022/11/08 11:37:49;;;;;;;;;;;;;;;19.65;51.01;95613.75;5055293;28;1148;-58
2022/11/08 11:40:34;;;;;;;;;;;;;;;19.75;52.46;95623.38;5055702;28;1073;-58
2022/11/08 11:43:11;;;;;;;;;;;;;;;19.76;53.34;95609.59;5055525;28;1089;-58
2022/11/08 11:45:43;;;;;;;;;;;;;;;19.74;52.49;95608.16;5055264;28;1985;-59
2022/11/08 11:48:13;;;;;;;;;;;;;;;19.62;52.20;95607.91;5055837;28;1112;-59
2022/11/08 11:50:43;;;;;;;;;;;;;;;19.49;52.81;95600.56;5054370;28;1101;-59
2022/11/08 11:53:15;;;;;;;;;;;;;;;19.48;52.63;95599.75;5055496;28;954;-59
2022/11/08 11:55:50;;;;;;;;;;;;;;;19.44;52.30;95603.06;5054177;28;1796;-59
2022/11/08 11:58:22;;;;;;;;;;;;;;;19.45;52.02;95591.19;5054383;28;1045;-59
2022/11/08 12:00:54;;;;;;;;;;;;;;;19.32;51.96;95594.69;5055153;28;1065;-73
2022/11/08 12:03:38;;;;;;;;;;;;;;;19.16;53.44;95589.63;5055277;28;970;-74
2022/11/08 12:06:04;;;;;;;;;;;;;;;19.03;53.81;95598.56;5055297;28;1049;-76
2022/11/08 12:08:49;;;;;;;;;;;;;;;18.95;53.63;95596.84;5055048;28;958;-74
2022/11/08 12:11:27;;;;;;;;;;;;;;;18.99;54.76;95592.72;5054805;28;1106;-75
2022/11/08 12:13:56;;;;;;;;;;;;;;;18.94;55.79;95588.94;5055207;28;1068;-75
2022/11/08 12:16:48;;;;;;;;;;;;;;;18.87;56.38;95584.31;5054939;28;922;-75
2022/11/08 12:19:14;;;;;;;;;;;;;;;18.87;54.33;95584.31;5051921;28;1147;-75
2022/11/08 12:21:46;;;;;;;;;;;;;;;18.86;54.56;95582.66;5054714;28;1086;-75
2022/11/08 12:24:30;;;;;;;;;;;;;;;18.85;55.77;95578.28;5037244;28;1902;-74
2022/11/08 12:26:56;;;;;;;;;;;;;;;18.83;56.20;95574.94;5037138;28;1054;-74
2022/11/08 12:29:31;;;;;;;;;;;;;;;18.83;55.70;95572.22;5036982;28;989;-75
2022/11/08 12:32:05;;;;;;;;;;;;;;;18.77;56.31;95566.75;5054666;28;1053;-76
2022/11/08 12:34:31;;;;;;;;;;;;;;;18.68;56.67;95569.63;5054752;28;966;-75
2022/11/08 12:37:09;;;;;;;;;;;;;;;18.68;56.59;95569.63;5054512;28;1247;-76
2022/11/08 12:39:48;;;;;;;;;;;;;;;18.62;56.51;95561.47;5033428;28;1010;-75
2022/11/08 12:42:28;;;;;;;;;;;;;;;18.61;55.90;95573.34;5034620;28;1033;-75
2022/11/08 12:45:13;;;;;;;;;;;;;;;18.61;56.98;95560.66;5034723;28;1906;-75
2022/11/08 12:47:45;;;;;;;;;;;;;;;18.57;57.06;95563.94;5034456;28;1079;-75
2022/11/08 12:50:17;;;;;;;;;;;;;;;18.62;57.15;95556.06;5016736;28;1128;-74
2022/11/08 12:52:49;;;;;;;;;;;;;;;18.56;57.12;95562.28;5034339;28;1124;-75
2022/11/08 12:55:21;;;;;;;;;;;;;;;18.53;56.68;95567.06;5047173;28;1737;-74
2022/11/08 12:57:50;;;;;;;;;;;;;;;18.51;57.46;95566.41;5054344;28;1062;-75
2022/11/08 13:00:17;;;;;;;;;;;;;;;18.48;57.42;95568.72;5036248;28;1167;-74
2022/11/08 13:02:56;;;;;;;;;;;;;;;18.43;56.98;95563.06;5054194;28;1158;-75
2022/11/08 13:05:25;;;;;;;;;;;;;;;18.46;57.94;95570.78;5053853;28;1985;-76
2022/11/08 13:08:00;;;;;;;;;;;;;;;18.50;56.99;95562.06;5054172;28;1013;-76
2022/11/08 13:10:26;;;;;;;;;;;;;;;18.50;56.22;95562.06;5053769;28;1054;-76
2022/11/08 13:12:55;;;;;;;;;;;;;;;18.41;56.81;95568.66;5036339;28;994;-79
2022/11/08 13:15:24;;;;;;;;;;;;;;;18.42;57.54;95564.94;5053816;28;1049;-72
2022/11/08 13:18:05;;;;;;;;;;;;;;;18.42;58.81;95573.06;5053768;28;1108;-74
2022/11/08 13:20:39;;;;;;;;;;;;;;;18.41;58.35;95574.06;5053543;28;1120;-85
2022/11/08 13:23:09;;;;;;;;;;;;;;;18.39;58.65;95569.91;5053640;28;1077;-74